Time;durP1;ratioP1;P1;durP2;ratioP2;P2;SDS_P1;SDS_P2;PMS_P1;PMS_P2;Temp;Humidity;BMP_temperature;BMP_pressure;BME280_temperature;BME280_humidity;BME280_pressure;Samples;Min_cycle;Max_cycle;Signal;HPM_P1;HPM_P2
2022/05/28 00:01:33;;;;;;;10.87;1.83;;;12.90;99.90;;;;;;5114827;28;20044;-67
2022/05/28 00:04:04;;;;;;;12.53;1.63;;;12.80;99.90;;;;;;5115504;28;20047;-66
2022/05/28 00:06:32;;;;;;;8.13;1.70;;;12.70;99.90;;;;;;5114958;28;20100;-66
2022/05/28 00:08:58;;;;;;;10.93;1.73;;;12.70;99.90;;;;;;5114909;28;20289;-66
2022/05/28 00:11:27;;;;;;;8.13;1.73;;;12.60;99.90;;;;;;5114504;28;20285;-67
2022/05/28 00:13:53;;;;;;;9.03;2.07;;;12.60;99.90;;;;;;5115286;28;20278;-66
2022/05/28 00:16:20;;;;;;;12.03;1.63;;;12.50;99.90;;;;;;5114644;28;20769;-66
2022/05/28 00:18:47;;;;;;;8.63;1.70;;;12.50;99.90;;;;;;5114535;28;20307;-66
2022/05/28 00:21:14;;;;;;;10.53;1.90;;;12.40;99.90;;;;;;5114893;28;20369;-66
2022/05/28 00:23:41;;;;;;;8.63;1.70;;;12.40;99.90;;;;;;5114350;28;20653;-66
2022/05/28 00:26:07;;;;;;;11.27;1.90;;;12.40;99.90;;;;;;5114835;28;20293;-66
2022/05/28 00:28:33;;;;;;;7.47;2.10;;;12.30;99.90;;;;;;5114504;28;20320;-66
2022/05/28 00:30:59;;;;;;;8.37;1.50;;;12.30;99.90;;;;;;5096672;28;20760;-66
2022/05/28 00:33:26;;;;;;;11.70;1.70;;;12.30;99.90;;;;;;5114348;28;20048;-68
2022/05/28 00:35:51;;;;;;;10.73;1.70;;;12.20;99.90;;;;;;5096554;28;20668;-66
2022/05/28 00:38:17;;;;;;;10.20;1.80;;;12.20;99.90;;;;;;5114312;28;20277;-66
2022/05/28 00:40:47;;;;;;;9.23;1.70;;;12.20;99.90;;;;;;5114280;28;20051;-66
2022/05/28 00:43:14;;;;;;;13.60;2.70;;;12.20;99.90;;;;;;5114493;28;20051;-66
2022/05/28 00:45:40;;;;;;;12.17;2.33;;;12.10;99.90;;;;;;5095979;28;20478;-66
2022/05/28 00:48:07;;;;;;;9.97;1.83;;;12.10;99.90;;;;;;5114250;28;20282;-66
2022/05/28 00:50:37;;;;;;;11.27;1.80;;;12.00;99.90;;;;;;5113965;28;20292;-66
2022/05/28 00:53:04;;;;;;;12.03;2.13;;;12.10;99.90;;;;;;5114037;28;20277;-66
2022/05/28 00:55:35;;;;;;;10.43;2.20;;;12.00;99.90;;;;;;5114001;28;20292;-66
2022/05/28 00:58:06;;;;;;;9.83;1.87;;;12.00;99.90;;;;;;5114221;28;20284;-66
2022/05/28 01:00:33;;;;;;;9.90;1.70;;;12.10;99.90;;;;;;5113796;28;20272;-66
2022/05/28 01:03:20;;;;;;;9.37;1.97;;;12.10;99.90;;;;;;5113932;28;20277;-66
2022/05/28 01:05:55;;;;;;;14.37;2.43;;;12.10;99.90;;;;;;5113773;28;20360;-66
2022/05/28 01:08:45;;;;;;;12.25;1.95;;;12.10;99.90;;;;;;5113931;28;20362;-66
2022/05/28 01:11:20;;;;;;;13.47;2.50;;;12.00;99.90;;;;;;5113888;28;20097;-66
2022/05/28 01:14:02;;;;;;;13.73;2.33;;;12.00;99.90;;;;;;5113425;28;20317;-66
2022/05/28 01:16:31;;;;;;;12.90;2.70;;;12.00;99.90;;;;;;5113999;28;20054;-66
2022/05/28 01:19:42;;;;;;;12.87;2.30;;;11.90;99.90;;;;;;5113731;28;20321;-66
2022/05/28 01:22:19;;;;;;;11.50;2.23;;;11.90;99.90;;;;;;5094092;28;20368;-66
2022/05/28 01:25:00;;;;;;;11.13;2.20;;;11.90;99.90;;;;;;5113485;28;20364;-66
2022/05/28 01:27:41;;;;;;;9.33;1.80;;;11.90;99.90;;;;;;5113645;28;20320;-66
2022/05/28 01:30:10;;;;;;;11.10;2.23;;;11.90;99.90;;;;;;5113617;28;20290;-66
2022/05/28 01:32:37;;;;;;;13.77;2.57;;;11.90;99.90;;;;;;5113067;28;20280;-66
2022/05/28 01:35:07;;;;;;;13.33;1.70;;;11.90;99.90;;;;;;5113509;28;20364;-66
2022/05/28 01:37:34;;;;;;;12.37;2.43;;;11.90;99.90;;;;;;5095513;28;20289;-68
2022/05/28 01:40:03;;;;;;;11.70;2.33;;;11.90;99.90;;;;;;5113443;28;20318;-66
2022/05/28 01:42:30;;;;;;;11.30;1.70;;;11.80;99.90;;;;;;5113402;28;20273;-66
2022/05/28 01:44:57;;;;;;;11.43;2.57;;;11.80;99.90;;;;;;5113015;28;20276;-66
2022/05/28 01:47:23;;;;;;;9.63;1.70;;;11.80;99.90;;;;;;5113090;28;20335;-66
2022/05/28 01:49:49;;;;;;;13.73;2.70;;;11.80;99.90;;;;;;5112960;28;20293;-66
2022/05/28 01:52:17;;;;;;;8.27;1.70;;;11.70;99.90;;;;;;5113436;28;20284;-66
2022/05/28 01:54:47;;;;;;;15.20;3.37;;;11.70;99.90;;;;;;5113028;28;20277;-66
2022/05/28 01:57:14;;;;;;;7.87;2.03;;;11.70;99.90;;;;;;5094866;28;20771;-66
2022/05/28 01:59:40;;;;;;;8.67;1.77;;;11.70;99.90;;;;;;5112797;28;20338;-66
2022/05/28 02:02:10;;;;;;;9.47;2.30;;;11.70;99.90;;;;;;5113347;28;20274;-66
2022/05/28 02:04:39;;;;;;;11.40;2.13;;;11.70;99.90;;;;;;5113201;28;20304;-67
2022/05/28 02:07:06;;;;;;;10.63;1.90;;;11.70;99.90;;;;;;5113220;28;20284;-66
2022/05/28 02:09:42;;;;;;;11.30;1.87;;;11.70;99.90;;;;;;5113161;28;20390;-66
2022/05/28 02:12:29;;;;;;;8.37;1.97;;;11.70;99.90;;;;;;5113157;28;20273;-66
2022/05/28 02:15:06;;;;;;;16.97;2.57;;;11.80;99.90;;;;;;5112957;28;20757;-66
2022/05/28 02:17:39;;;;;;;9.87;1.93;;;11.70;99.90;;;;;;5113218;28;20638;-66
2022/05/28 02:20:20;;;;;;;12.07;2.97;;;11.70;99.90;;;;;;5112944;28;20280;-66
2022/05/28 02:23:05;;;;;;;15.13;2.20;;;11.70;99.90;;;;;;5112916;28;20776;-66
2022/05/28 02:25:33;;;;;;;12.55;2.42;;;11.60;99.90;;;;;;5113289;28;20269;-66
2022/05/28 02:28:01;;;;;;;19.83;2.50;;;11.60;99.90;;;;;;5112657;28;20052;-66
2022/05/28 02:30:27;;;;;;;11.73;2.20;;;11.60;99.90;;;;;;5112965;28;20285;-66
2022/05/28 02:33:05;;;;;;;13.80;2.50;;;11.60;99.90;;;;;;5112548;28;20277;-66
2022/05/28 02:35:31;;;;;;;14.03;2.40;;;11.60;99.90;;;;;;5113076;28;20309;-66
2022/05/28 02:37:57;;;;;;;13.63;2.50;;;11.60;99.90;;;;;;5112696;28;20356;-66
2022/05/28 02:40:23;;;;;;;10.40;1.90;;;11.60;99.90;;;;;;5112846;28;20357;-66
2022/05/28 02:42:49;;;;;;;13.03;2.30;;;11.60;99.90;;;;;;5094385;28;20052;-66
2022/05/28 02:45:17;;;;;;;11.50;3.17;;;11.60;99.90;;;;;;5112834;28;20048;-66
2022/05/28 02:47:44;;;;;;;10.03;2.20;;;11.60;99.90;;;;;;5112258;28;20284;-66
2022/05/28 02:50:10;;;;;;;20.43;2.50;;;11.60;99.90;;;;;;5112805;28;20289;-66
2022/05/28 02:52:36;;;;;;;14.67;3.17;;;11.50;99.90;;;;;;5112736;28;20288;-66
2022/05/28 02:55:02;;;;;;;13.13;2.70;;;11.60;99.90;;;;;;5112525;28;20414;-66
2022/05/28 02:57:28;;;;;;;10.10;2.03;;;11.50;99.90;;;;;;5112960;28;20300;-66
2022/05/28 02:59:56;;;;;;;14.73;2.67;;;11.60;99.90;;;;;;5112970;28;20278;-66
2022/05/28 03:02:22;;;;;;;11.00;2.00;;;11.60;99.90;;;;;;5116298;28;20277;-66
2022/05/28 03:04:48;;;;;;;14.13;1.93;;;11.50;99.90;;;;;;5116099;28;20342;-66
2022/05/28 03:07:14;;;;;;;16.50;2.77;;;11.50;99.90;;;;;;5116331;28;20282;-68
2022/05/28 03:09:40;;;;;;;13.97;2.87;;;11.50;99.90;;;;;;5116228;28;20047;-66
2022/05/28 03:12:05;;;;;;;12.23;2.47;;;11.50;99.90;;;;;;5115915;28;20044;-66
2022/05/28 03:14:31;;;;;;;14.33;3.23;;;11.50;99.90;;;;;;5116142;28;20043;-66
2022/05/28 03:16:57;;;;;;;13.13;2.17;;;11.50;99.90;;;;;;5115585;28;20051;-66
2022/05/28 03:19:23;;;;;;;13.93;2.60;;;11.50;99.90;;;;;;5116165;28;20036;-66
2022/05/28 03:21:48;;;;;;;15.03;2.43;;;11.40;99.90;;;;;;5115501;28;20051;-66
2022/05/28 03:24:14;;;;;;;14.70;2.37;;;11.50;99.90;;;;;;5116233;28;20118;-66
2022/05/28 03:26:40;;;;;;;12.33;2.77;;;11.50;99.90;;;;;;5098204;28;20552;-66
2022/05/28 03:29:06;;;;;;;15.37;2.50;;;11.50;99.90;;;;;;5115656;28;20079;-66
2022/05/28 03:31:32;;;;;;;15.17;2.70;;;11.50;99.90;;;;;;5115680;28;20095;-66
2022/05/28 03:33:59;;;;;;;17.40;2.83;;;11.50;99.90;;;;;;5115554;28;20075;-66
2022/05/28 03:36:25;;;;;;;14.40;2.87;;;11.50;99.90;;;;;;5115912;28;20285;-66
2022/05/28 03:38:51;;;;;;;14.50;2.37;;;11.50;99.90;;;;;;5115377;28;20286;-66
2022/05/28 03:41:17;;;;;;;17.23;3.20;;;11.40;99.90;;;;;;5115729;28;20278;-66
2022/05/28 03:43:43;;;;;;;14.10;2.33;;;11.50;99.90;;;;;;5097338;28;20054;-66
2022/05/28 03:46:39;;;;;;;16.67;3.20;;;11.50;99.90;;;;;;5115158;28;20364;-66
2022/05/28 03:49:19;;;;;;;19.48;3.72;;;11.50;99.90;;;;;;5101919;28;20062;-66
2022/05/28 03:51:45;;;;;;;13.60;2.37;;;11.40;99.90;;;;;;5115606;28;20048;-66
2022/05/28 03:54:11;;;;;;;12.57;2.23;;;11.40;99.90;;;;;;5115052;28;20274;-66
2022/05/28 03:56:39;;;;;;;13.13;2.73;;;11.40;99.90;;;;;;5097452;28;20386;-66
2022/05/28 03:59:06;;;;;;;16.53;3.57;;;11.40;99.90;;;;;;5115075;28;20109;-66
2022/05/28 04:01:32;;;;;;;17.23;3.03;;;11.40;99.90;;;;;;5115215;28;20273;-66
2022/05/28 04:03:58;;;;;;;13.67;2.57;;;11.40;99.90;;;;;;5114865;28;20273;-66
2022/05/28 04:06:24;;;;;;;15.20;2.70;;;11.40;99.90;;;;;;5115113;28;20303;-66
2022/05/28 04:08:49;;;;;;;16.13;2.50;;;11.40;99.90;;;;;;5114568;28;20098;-66
2022/05/28 04:11:17;;;;;;;16.47;2.90;;;11.60;99.90;;;;;;5114493;28;20773;-66
2022/05/28 04:13:43;;;;;;;8.53;2.63;;;11.60;99.90;;;;;;5115071;28;20055;-66
2022/05/28 04:16:09;;;;;;;13.53;2.97;;;11.60;99.90;;;;;;5114711;28;20277;-66
2022/05/28 04:18:35;;;;;;;16.00;3.13;;;11.60;99.90;;;;;;5114953;28;20273;-66
2022/05/28 04:21:01;;;;;;;17.87;3.97;;;11.60;99.90;;;;;;5114489;28;20350;-66
2022/05/28 04:23:27;;;;;;;19.07;3.43;;;11.60;99.90;;;;;;5114810;28;20274;-67
2022/05/28 04:25:52;;;;;;;16.93;3.23;;;11.60;99.90;;;;;;5114285;28;20055;-67
2022/05/28 04:28:18;;;;;;;15.37;2.90;;;11.60;99.90;;;;;;5114694;28;20399;-66
2022/05/28 04:30:44;;;;;;;14.83;2.87;;;11.60;99.90;;;;;;5114731;28;20047;-66
2022/05/28 04:33:09;;;;;;;12.50;2.60;;;11.60;99.90;;;;;;5096128;28;20043;-64
2022/05/28 04:35:35;;;;;;;20.87;3.77;;;11.60;99.90;;;;;;5114433;28;20043;-64
2022/05/28 04:38:01;;;;;;;15.27;2.37;;;11.60;99.90;;;;;;5114239;28;20048;-64
2022/05/28 04:40:26;;;;;;;12.50;2.60;;;11.70;99.90;;;;;;5114510;28;20069;-64
2022/05/28 04:42:52;;;;;;;14.57;2.63;;;11.70;99.90;;;;;;5096067;28;20047;-67
2022/05/28 04:45:18;;;;;;;16.93;3.53;;;11.70;99.90;;;;;;5114245;28;20043;-65
2022/05/28 04:47:44;;;;;;;17.77;2.70;;;11.70;99.90;;;;;;5096180;28;20040;-65
2022/05/28 04:50:10;;;;;;;12.23;2.33;;;11.80;99.90;;;;;;5113894;28;20109;-65
2022/05/28 04:52:38;;;;;;;15.50;2.70;;;11.70;99.90;;;;;;5114059;28;20377;-65
2022/05/28 04:55:05;;;;;;;13.87;2.73;;;11.80;99.90;;;;;;5113831;28;20285;-65
2022/05/28 04:57:31;;;;;;;14.90;2.83;;;11.90;99.90;;;;;;5114132;28;20281;-65
2022/05/28 04:59:56;;;;;;;12.40;3.30;;;11.90;99.90;;;;;;5113867;28;20625;-65
2022/05/28 05:02:22;;;;;;;16.90;3.00;;;12.00;99.90;;;;;;5114159;28;20048;-65
2022/05/28 05:04:53;;;;;;;14.43;3.13;;;12.10;99.90;;;;;;5095896;28;20437;-65
2022/05/28 05:07:18;;;;;;;13.33;3.90;;;12.20;99.90;;;;;;5113667;28;20047;-65
2022/05/28 05:09:44;;;;;;;16.20;3.87;;;12.30;99.90;;;;;;5113946;28;20618;-65
2022/05/28 05:12:10;;;;;;;15.53;2.87;;;12.40;99.90;;;;;;5113707;28;20068;-65
2022/05/28 05:14:35;;;;;;;18.47;3.80;;;12.50;99.90;;;;;;5113938;28;20074;-65
2022/05/28 05:17:01;;;;;;;17.70;3.17;;;12.50;99.90;;;;;;5113581;28;20304;-65
2022/05/28 05:19:26;;;;;;;13.67;2.73;;;12.50;99.90;;;;;;5113850;28;20050;-65
2022/05/28 05:21:56;;;;;;;17.33;3.43;;;12.50;99.90;;;;;;5091942;28;20112;-65
2022/05/28 05:24:25;;;;;;;14.60;3.20;;;12.50;99.90;;;;;;5092912;28;20048;-65
2022/05/28 05:26:51;;;;;;;16.70;3.27;;;12.40;99.90;;;;;;5092268;28;20282;-65
2022/05/28 05:29:17;;;;;;;17.17;3.40;;;12.40;99.90;;;;;;5092858;28;20286;-65
2022/05/28 05:31:43;;;;;;;9.87;2.80;;;12.40;99.90;;;;;;5092139;28;20274;-65
2022/05/28 05:34:09;;;;;;;10.37;2.77;;;12.20;99.90;;;;;;5092844;28;20282;-65
2022/05/28 05:36:36;;;;;;;11.57;2.43;;;12.00;99.90;;;;;;5093035;28;20127;-65
2022/05/28 05:39:02;;;;;;;9.03;2.03;;;11.90;99.90;;;;;;5093026;28;20097;-65
2022/05/28 05:41:28;;;;;;;14.07;2.00;;;11.70;99.90;;;;;;5093167;28;20290;-65
2022/05/28 05:43:54;;;;;;;13.70;2.57;;;11.60;99.90;;;;;;5092937;28;20286;-65
2022/05/28 05:46:20;;;;;;;10.07;1.87;;;11.70;99.90;;;;;;5092737;28;20052;-65
2022/05/28 05:48:45;;;;;;;13.30;2.73;;;11.60;99.90;;;;;;5092844;28;20048;-65
2022/05/28 05:51:14;;;;;;;14.20;2.53;;;11.60;99.90;;;;;;5091192;28;20327;-65
2022/05/28 05:53:40;;;;;;;15.93;3.13;;;11.60;99.90;;;;;;5093047;28;20131;-65
2022/05/28 05:56:06;;;;;;;12.20;2.57;;;11.70;99.90;;;;;;5092787;28;20316;-65
2022/05/28 05:58:34;;;;;;;14.37;2.70;;;11.80;99.90;;;;;;5092996;28;20331;-65
2022/05/28 06:01:01;;;;;;;13.27;2.43;;;11.80;99.90;;;;;;5092910;28;20044;-65
2022/05/28 06:03:28;;;;;;;17.30;3.07;;;11.90;99.90;;;;;;5092784;28;20306;-65
2022/05/28 06:05:58;;;;;;;13.73;3.70;;;12.10;99.90;;;;;;5092510;28;20274;-65
2022/05/28 06:08:24;;;;;;;14.87;2.90;;;12.30;99.90;;;;;;5092561;28;20298;-65
2022/05/28 06:10:50;;;;;;;15.37;2.87;;;12.50;99.90;;;;;;5092909;28;20280;-65
2022/05/28 06:13:15;;;;;;;13.13;2.63;;;12.70;99.90;;;;;;5092394;28;20040;-65
2022/05/28 06:15:41;;;;;;;16.20;3.37;;;12.90;99.90;;;;;;5092703;28;20079;-65
2022/05/28 06:18:07;;;;;;;15.90;3.80;;;;;;;;;;5092240;28;20036;-66
2022/05/28 06:20:34;;;;;;;16.37;3.53;;;;;;;;;;5092618;28;20040;-65
2022/05/28 06:23:01;;;;;;;13.13;3.63;;;14.00;99.90;;;;;;5112314;28;20285;-65
2022/05/28 06:25:27;;;;;;;19.57;4.43;;;14.40;99.90;;;;;;5112509;28;20695;-66
2022/05/28 06:27:53;;;;;;;15.07;3.37;;;14.10;99.90;;;;;;5112916;28;20314;-65
2022/05/28 06:30:19;;;;;;;19.20;3.57;;;13.90;99.90;;;;;;5112443;28;20039;-65
2022/05/28 06:32:45;;;;;;;12.20;3.57;;;13.80;99.90;;;;;;5112926;28;20143;-65
2022/05/28 06:35:11;;;;;;;16.67;3.90;;;13.80;99.90;;;;;;5115465;28;20399;-65
2022/05/28 06:37:37;;;;;;;19.50;4.57;;;13.80;99.90;;;;;;5116927;28;20429;-65
2022/05/28 06:40:04;;;;;;;15.97;3.60;;;14.10;99.90;;;;;;5098848;28;20342;-65
2022/05/28 06:42:30;;;;;;;13.47;3.07;;;14.50;99.90;;;;;;5116756;28;20079;-65
2022/05/28 06:44:56;;;;;;;18.97;3.27;;;14.90;99.90;;;;;;5098701;28;20332;-65
2022/05/28 06:47:22;;;;;;;18.87;3.63;;;;;;;;;;5116334;28;20103;-65
2022/05/28 06:52:34;;;;;;;12.63;2.53;;;;;;;;;;5099044;28;20286;-65
2022/05/28 06:55:00;;;;;;;18.27;3.47;;;15.30;98.40;;;;;;5116526;28;20494;-65
2022/05/28 06:57:25;;;;;;;15.80;3.27;;;15.00;99.90;;;;;;5116254;28;20286;-65
2022/05/28 06:59:51;;;;;;;18.70;4.07;;;14.80;99.90;;;;;;5116276;28;20045;-65
2022/05/28 07:02:17;;;;;;;12.50;3.17;;;14.60;99.90;;;;;;5116304;28;20047;-65
2022/05/28 07:04:44;;;;;;;17.57;3.20;;;14.50;99.90;;;;;;5116440;28;20380;-65
2022/05/28 07:07:09;;;;;;;11.97;3.30;;;14.40;99.90;;;;;;5098254;28;20138;-65
2022/05/28 07:09:35;;;;;;;16.80;3.30;;;14.30;99.90;;;;;;5116315;28;20762;-65
2022/05/28 07:12:01;;;;;;;13.93;2.77;;;14.20;99.90;;;;;;5116329;28;20051;-65
2022/05/28 07:14:26;;;;;;;13.73;2.70;;;14.20;99.90;;;;;;5115919;28;20052;-65
2022/05/28 07:16:52;;;;;;;17.60;3.10;;;14.30;99.90;;;;;;5116702;28;20047;-65
2022/05/28 07:19:18;;;;;;;18.43;3.60;;;14.50;99.90;;;;;;5116034;28;20485;-66
2022/05/28 07:21:43;;;;;;;17.63;3.40;;;14.60;99.90;;;;;;5097814;28;20051;-64
2022/05/28 07:24:09;;;;;;;14.07;3.13;;;14.80;99.90;;;;;;5115819;28;20055;-67
2022/05/28 07:26:35;;;;;;;19.90;3.83;;;15.10;99.90;;;;;;5116128;28;20051;-66
2022/05/28 07:29:01;;;;;;;15.77;3.47;;;;;;;;;;5115627;28;20039;-66
2022/05/28 07:31:26;;;;;;;12.70;2.67;;;15.60;99.30;;;;;;5115693;28;20039;-66
2022/05/28 07:33:52;;;;;;;16.97;3.47;;;16.90;98.60;;;;;;5115856;27;20297;-66
2022/05/28 07:36:21;;;;;;;16.37;3.10;;;17.50;94.50;;;;;;5115624;28;20054;-67
2022/05/28 07:38:48;;;;;;;14.73;3.20;;;17.70;91.90;;;;;;5115715;28;20096;-64
2022/05/28 07:41:17;;;;;;;14.03;3.53;;;17.30;90.20;;;;;;5115386;28;20281;-64
2022/05/28 07:43:43;;;;;;;12.60;2.97;;;16.80;90.40;;;;;;5097429;28;20281;-64
2022/05/28 07:46:17;;;;;;;16.23;3.83;;;16.30;90.20;;;;;;5115013;28;20375;-65
2022/05/28 07:48:43;;;;;;;15.93;2.72;;;16.00;91.20;;;;;;5115313;28;20296;-65
2022/05/28 07:51:10;;;;;;;16.77;3.50;;;15.70;92.40;;;;;;5097320;28;20054;-66
2022/05/28 07:53:36;;;;;;;15.23;3.17;;;15.50;93.10;;;;;;5115147;28;20288;-66
2022/05/28 07:56:03;;;;;;;13.90;3.10;;;15.40;93.80;;;;;;5115339;28;20343;-66
2022/05/28 07:58:29;;;;;;;21.43;3.43;;;15.20;94.70;;;;;;5114949;28;20323;-66
2022/05/28 08:00:55;;;;;;;12.00;3.47;;;15.00;96.10;;;;;;5115636;28;20760;-64
2022/05/28 08:03:21;;;;;;;10.37;2.73;;;14.90;96.80;;;;;;5115115;28;20044;-64
2022/05/28 08:05:49;;;;;;;18.97;3.70;;;14.80;97.60;;;;;;5115487;28;20331;-64
2022/05/28 08:08:16;;;;;;;14.57;3.20;;;14.80;98.30;;;;;;5114936;28;20051;-65
2022/05/28 08:10:42;;;;;;;21.27;4.27;;;15.10;98.10;;;;;;5114987;28;20277;-64
2022/05/28 08:13:11;;;;;;;16.93;3.30;;;15.20;97.10;;;;;;5115119;28;20388;-64
2022/05/28 08:15:39;;;;;;;13.53;3.30;;;15.20;96.30;;;;;;5114852;28;20122;-64
2022/05/28 08:18:06;;;;;;;16.80;3.30;;;15.20;96.00;;;;;;5114969;28;20277;-65
2022/05/28 08:23:18;;;;;;;17.83;3.20;;;15.00;95.40;;;;;;5114220;28;20290;-65
2022/05/28 08:25:45;;;;;;;19.50;3.10;;;15.00;95.90;;;;;;5114720;28;20483;-65
2022/05/28 08:28:12;;;;;;;20.67;3.10;;;15.10;95.20;;;;;;5114796;28;20614;-65
2022/05/28 08:30:39;;;;;;;16.33;3.53;;;15.20;95.20;;;;;;5114549;28;20293;-65
2022/05/28 08:33:10;;;;;;;17.87;3.53;;;15.40;96.00;;;;;;5114765;28;20629;-65
2022/05/28 08:35:37;;;;;;;12.07;3.27;;;16.30;95.10;;;;;;5114282;28;20269;-65
2022/05/28 08:38:09;;;;;;;12.13;2.70;;;17.40;94.10;;;;;;5114417;28;20403;-65
2022/05/28 08:40:43;;;;;;;12.83;2.70;;;18.20;89.70;;;;;;5114321;28;20051;-65
2022/05/28 08:43:10;;;;;;;10.18;2.58;;;18.40;75.00;;;;;;5114706;28;20122;-65
2022/05/28 08:45:35;;;;;;;15.00;3.10;;;17.90;71.60;;;;;;5095994;28;20456;-66
2022/05/28 08:48:02;;;;;;;15.60;2.90;;;17.30;70.20;;;;;;5114408;28;20124;-65
2022/05/28 08:50:29;;;;;;;13.23;3.23;;;17.00;70.00;;;;;;5113814;28;20127;-65
2022/05/28 08:53:13;;;;;;;12.40;3.13;;;17.10;72.30;;;;;;5114022;28;20050;-65
2022/05/28 08:55:45;;;;;;;14.93;2.97;;;17.20;72.50;;;;;;5114214;28;20043;-70
2022/05/28 08:58:18;;;;;;;19.23;4.00;;;17.00;71.10;;;;;;5113357;28;20116;-65
2022/05/28 09:00:54;;;;;;;17.63;4.00;;;17.10;70.20;;;;;;5095847;28;20055;-67
2022/05/28 09:03:28;;;;;;;11.77;2.67;;;17.00;71.00;;;;;;5114132;28;20066;-68
2022/05/28 09:06:03;;;;;;;12.63;2.93;;;16.80;70.20;;;;;;5114346;28;20104;-66
2022/05/28 09:08:48;;;;;;;14.85;2.70;;;16.80;72.40;;;;;;5112933;28;20440;-67
2022/05/28 09:11:20;;;;;;;15.80;3.13;;;17.20;72.00;;;;;;5111524;28;20100;-65
2022/05/28 09:13:49;;;;;;;16.67;2.90;;;17.20;71.20;;;;;;5085683;28;20119;-65
2022/05/28 09:16:36;;;;;;;15.17;3.27;;;17.10;70.20;;;;;;5112991;28;20087;-66
2022/05/28 09:19:06;;;;;;;13.77;3.27;;;17.00;71.00;;;;;;5095259;28;20122;-67
2022/05/28 09:21:32;;;;;;;12.70;3.80;;;17.00;72.30;;;;;;5113192;28;20095;-65
2022/05/28 09:24:04;;;;;;;16.50;3.53;;;16.90;72.80;;;;;;5113526;28;20087;-64
2022/05/28 09:26:51;;;;;;;13.87;3.20;;;16.80;72.80;;;;;;5095612;28;20134;-65
2022/05/28 09:29:39;;;;;;;14.50;3.00;;;16.70;71.90;;;;;;5095423;28;20043;-65
2022/05/28 09:32:30;;;;;;;18.93;3.13;;;16.60;72.70;;;;;;5113565;28;20059;-65
2022/05/28 09:35:26;;;;;;;20.70;3.37;;;16.50;72.50;;;;;;5113630;28;20101;-65
2022/05/28 09:38:24;;;;;;;29.83;4.23;;;16.40;72.70;;;;;;5113553;28;20043;-65
2022/05/28 09:40:59;;;;;;;13.03;3.13;;;16.60;76.40;;;;;;5084705;28;20051;-65
2022/05/28 09:43:33;;;;;;;17.17;3.20;;;16.60;76.70;;;;;;5113630;28;20044;-66
2022/05/28 09:46:13;;;;;;;12.05;2.75;;;16.50;75.90;;;;;;5113908;28;20054;-65
2022/05/28 09:48:39;;;;;;;12.90;3.00;;;16.40;76.80;;;;;;5113098;28;20545;-66
2022/05/28 09:51:20;;;;;;;11.93;2.97;;;16.30;77.30;;;;;;5113379;28;20041;-65
2022/05/28 09:56:36;;;;;;;17.90;3.03;;;16.40;76.50;;;;;;5113171;28;20051;-68
2022/05/28 09:59:30;;;;;;;12.13;2.83;;;16.30;76.00;;;;;;5113288;28;20097;-65
2022/05/28 10:02:24;;;;;;;16.53;3.07;;;16.30;78.00;;;;;;5113670;28;20051;-66
2022/05/28 10:05:12;;;;;;;15.53;3.47;;;16.20;79.40;;;;;;5113021;28;20082;-66
2022/05/28 10:07:45;;;;;;;13.23;2.97;;;16.30;78.00;;;;;;5094787;28;20036;-66
2022/05/28 10:10:19;;;;;;;12.37;3.00;;;16.30;79.00;;;;;;5081197;28;20039;-67
2022/05/28 10:12:45;;;;;;;15.70;4.05;;;16.40;75.40;;;;;;5117291;28;20051;-66
2022/05/28 10:15:17;;;;;;;14.10;2.87;;;16.50;76.10;;;;;;5099296;28;20151;-67
2022/05/28 10:17:51;;;;;;;14.20;2.97;;;16.50;73.00;;;;;;5117100;28;20044;-67
2022/05/28 10:20:19;;;;;;;9.90;2.97;;;16.50;73.50;;;;;;5098932;28;20120;-67
2022/05/28 10:22:51;;;;;;;16.00;3.00;;;16.40;73.50;;;;;;5116358;28;20129;-66
2022/05/28 10:25:48;;;;;;;12.77;2.93;;;16.30;73.60;;;;;;5116729;28;20394;-66
2022/05/28 10:28:27;;;;;;;16.33;2.83;;;16.10;74.60;;;;;;5116061;28;20047;-67
2022/05/28 10:30:54;;;;;;;17.63;3.70;;;16.00;77.00;;;;;;5116588;28;20140;-67
2022/05/28 10:33:24;;;;;;;18.30;3.03;;;15.80;78.20;;;;;;5117112;28;20085;-67
2022/05/28 10:35:51;;;;;;;12.73;2.93;;;15.80;81.00;;;;;;5116884;28;20104;-67
2022/05/28 10:38:21;;;;;;;13.40;3.20;;;15.80;82.30;;;;;;5116990;28;20051;-67
2022/05/28 10:40:53;;;;;;;16.27;3.63;;;15.90;83.50;;;;;;5116579;28;20050;-66
2022/05/28 10:43:29;;;;;;;12.50;3.43;;;16.00;84.40;;;;;;5117132;28;20047;-66
2022/05/28 10:46:32;;;;;;;12.13;2.77;;;16.10;82.50;;;;;;5116578;28;20040;-66
2022/05/28 10:49:18;;;;;;;14.00;3.20;;;16.20;79.10;;;;;;5116631;28;20040;-66
2022/05/28 10:52:14;;;;;;;11.27;2.90;;;16.50;76.00;;;;;;5116660;28;20070;-67
2022/05/28 10:55:02;;;;;;;13.33;2.97;;;16.60;79.00;;;;;;5116541;28;20051;-70
2022/05/28 10:58:03;;;;;;;12.63;2.90;;;16.70;76.20;;;;;;5116549;28;20039;-66
2022/05/28 11:01:02;;;;;;;12.77;2.47;;;16.80;76.70;;;;;;5102789;28;20130;-67
2022/05/28 11:03:37;;;;;;;11.20;2.67;;;16.80;74.20;;;;;;5116512;28;20055;-67
2022/05/28 11:06:27;;;;;;;13.40;2.35;;;16.90;70.00;;;;;;5116393;28;20056;-67
2022/05/28 11:09:28;;;;;;;12.57;2.80;;;16.80;69.20;;;;;;5116245;28;20440;-67
2022/05/28 11:12:21;;;;;;;10.97;2.30;;;16.80;68.50;;;;;;5095819;28;20055;-66
2022/05/28 11:15:08;;;;;;;12.07;2.90;;;16.70;69.40;;;;;;5116269;28;20044;-66
2022/05/28 11:17:44;;;;;;;13.93;2.67;;;16.40;73.50;;;;;;5115404;28;20047;-67
2022/05/28 11:20:25;;;;;;;13.93;2.83;;;16.20;77.30;;;;;;5095168;28;20054;-67
2022/05/28 11:23:05;;;;;;;14.90;2.63;;;16.10;79.90;;;;;;5115478;28;20078;-66
2022/05/28 11:26:06;;;;;;;14.17;2.83;;;16.10;81.70;;;;;;5116150;28;20096;-67
2022/05/28 11:29:07;;;;;;;9.17;2.20;;;16.20;84.70;;;;;;5097933;28;20043;-67
2022/05/28 11:31:38;;;;;;;12.00;2.90;;;16.20;82.80;;;;;;5116174;28;20079;-68
2022/05/28 11:34:15;;;;;;;10.00;2.20;;;16.20;82.30;;;;;;5115677;28;20104;-67
2022/05/28 11:36:47;;;;;;;8.50;2.13;;;16.20;79.40;;;;;;5114872;28;20091;-68
2022/05/28 11:39:25;;;;;;;10.63;2.30;;;16.20;81.10;;;;;;5115274;28;20054;-67
2022/05/28 11:41:53;;;;;;;12.60;2.60;;;16.20;78.30;;;;;;5115570;28;20054;-67
2022/05/28 11:44:41;;;;;;;8.70;2.10;;;16.30;79.60;;;;;;5115752;28;20047;-67
2022/05/28 11:47:26;;;;;;;11.67;2.70;;;16.20;76.60;;;;;;5097507;28;20130;-67
2022/05/28 11:53:15;;;;;;;10.00;2.57;;;16.30;77.90;;;;;;5115330;28;20132;-68
2022/05/28 11:55:43;;;;;;;10.40;2.80;;;16.30;76.60;;;;;;5115170;28;20051;-68
2022/05/28 11:58:20;;;;;;;13.20;3.00;;;16.40;77.30;;;;;;5115356;28;20054;-68
2022/05/28 12:01:10;;;;;;;12.53;2.67;;;16.40;73.80;;;;;;5097145;28;20043;-67
2022/05/28 12:03:37;;;;;;;11.50;2.87;;;16.30;73.70;;;;;;5097383;28;20050;-67
2022/05/28 12:06:32;;;;;;;14.33;2.77;;;16.20;75.20;;;;;;5115011;28;20069;-67
2022/05/28 12:09:18;;;;;;;12.57;2.60;;;16.30;76.30;;;;;;5083508;28;20051;-67
2022/05/28 12:12:02;;;;;;;14.13;3.20;;;16.30;76.70;;;;;;5114903;28;20507;-67
2022/05/28 12:14:34;;;;;;;16.13;2.87;;;16.30;77.10;;;;;;5097279;28;20050;-66
2022/05/28 12:17:17;;;;;;;13.73;2.90;;;16.30;78.50;;;;;;5114728;28;20052;-66
2022/05/28 12:19:50;;;;;;;14.13;3.47;;;16.30;78.10;;;;;;5115177;28;20040;-68
2022/05/28 12:22:32;;;;;;;15.10;2.80;;;16.40;77.60;;;;;;5115414;28;20094;-70
2022/05/28 12:25:16;;;;;;;17.10;2.73;;;16.50;76.00;;;;;;5114691;28;20403;-66
2022/05/28 12:28:12;;;;;;;11.97;2.37;;;16.70;73.90;;;;;;5114943;28;20057;-66
2022/05/28 12:30:43;;;;;;;11.30;2.63;;;16.70;72.10;;;;;;5114974;28;20058;-66
2022/05/28 12:33:23;;;;;;;9.77;2.17;;;16.80;71.10;;;;;;5114162;28;20143;-66
2022/05/28 12:36:05;;;;;;;9.47;2.53;;;16.90;69.00;;;;;;5114408;28;20466;-67
2022/05/28 12:38:39;;;;;;;10.73;2.07;;;16.90;68.70;;;;;;5114788;28;20086;-72
2022/05/28 12:41:05;;;;;;;7.55;2.22;;;16.90;64.40;;;;;;5114448;28;20043;-65
2022/05/28 12:43:38;;;;;;;9.87;2.30;;;16.80;64.20;;;;;;5114777;28;20050;-65
2022/05/28 12:46:17;;;;;;;7.87;2.30;;;16.80;65.50;;;;;;5114134;28;20475;-66
2022/05/28 12:48:44;;;;;;;9.97;2.23;;;16.70;64.90;;;;;;5114659;28;20039;-66
2022/05/28 12:51:33;;;;;;;8.17;2.53;;;16.60;65.30;;;;;;5114288;28;20140;-66
2022/05/28 12:54:04;;;;;;;7.50;2.27;;;16.60;64.30;;;;;;5113995;28;20518;-66
2022/05/28 12:56:33;;;;;;;8.93;2.37;;;16.60;64.00;;;;;;5096280;28;20052;-65
2022/05/28 12:59:28;;;;;;;9.20;2.20;;;16.50;62.30;;;;;;5114411;28;20072;-66
2022/05/28 13:02:06;;;;;;;7.88;2.13;;;16.50;63.30;;;;;;5109307;28;20052;-64
2022/05/28 13:04:43;;;;;;;11.77;2.30;;;16.40;62.00;;;;;;5110602;28;20074;-64
2022/05/28 13:07:34;;;;;;;12.13;2.57;;;16.20;64.00;;;;;;5100692;28;20086;-66
2022/05/28 13:10:16;;;;;;;9.60;2.43;;;16.20;64.10;;;;;;5101906;28;20516;-66
2022/05/28 13:12:55;;;;;;;11.43;2.47;;;16.20;64.90;;;;;;5109869;28;20649;-66
2022/05/28 13:15:30;;;;;;;10.30;2.53;;;16.30;66.30;;;;;;5112982;28;20040;-66